Time;durP1;ratioP1;P1;durP2;ratioP2;P2;SDS_P1;SDS_P2;PMS_P1;PMS_P2;Temp;Humidity;BMP_temperature;BMP_pressure;BME280_temperature;BME280_humidity;BME280_pressure;Samples;Min_cycle;Max_cycle;Signal;HPM_P1;HPM_P2
2022/03/23 00:02:15;;;;;;;58.30;38.75;;;;;;;;;;5108003;28;20063;-77
2022/03/23 00:04:42;;;;;;;56.83;41.20;;;;;;;;;;5106879;28;20456;-77
2022/03/23 00:07:10;;;;;;;47.38;36.10;;;;;;;;;;5105577;28;20059;-77
2022/03/23 00:09:38;;;;;;;48.58;37.08;;;;;;;;;;5101572;28;20051;-77
2022/03/23 00:12:06;;;;;;;56.00;38.33;;;;;;;;;;5104081;28;20056;-77
2022/03/23 00:14:33;;;;;;;49.10;36.63;;;;;;;;;;5108247;28;20052;-77
2022/03/23 00:17:00;;;;;;;56.00;39.20;;;;;;;;;;5106227;28;20087;-77
2022/03/23 00:19:28;;;;;;;56.47;38.55;;;;;;;;;;5106513;28;20048;-77
2022/03/23 00:21:55;;;;;;;55.00;38.55;;;;;;;;;;5105340;28;20047;-77
2022/03/23 00:24:22;;;;;;;50.72;37.50;;;;;;;;;;5102701;28;20134;-77
2022/03/23 00:26:51;;;;;;;56.88;38.65;;;;;;;;;;5107333;28;20052;-77
2022/03/23 00:29:18;;;;;;;53.90;36.65;;;;;;;;;;5105780;28;20051;-77
2022/03/23 00:31:45;;;;;;;46.28;35.33;;;;;;;;;;5107216;28;20044;-77
2022/03/23 00:34:12;;;;;;;56.63;37.13;;;;;;;;;;5106554;28;20055;-77
2022/03/23 00:36:39;;;;;;;52.78;37.15;;;;;;;;;;5101917;28;20056;-77
2022/03/23 00:39:07;;;;;;;51.45;36.60;;;;;;;;;;5106565;28;20051;-77
2022/03/23 00:41:34;;;;;;;54.30;37.80;;;;;;;;;;5104535;28;20043;-77
2022/03/23 00:44:03;;;;;;;56.53;40.40;;;;;;;;;;5109323;27;20120;-77
2022/03/23 00:46:30;;;;;;;54.50;40.17;;;;;;;;;;5106008;28;20055;-77
2022/03/23 00:48:57;;;;;;;57.90;39.85;;;;;;;;;;5105840;27;20175;-77
2022/03/23 00:51:25;;;;;;;57.60;40.75;;;;;;;;;;5109708;27;20044;-77
2022/03/23 00:53:52;;;;;;;64.07;41.97;;;;;;;;;;5109757;27;20046;-77
2022/03/23 00:56:19;;;;;;;59.67;40.58;;;;;;;;;;5107669;27;20051;-77
2022/03/23 00:58:46;;;;;;;67.00;44.67;;;;;;;;;;5109166;27;20062;-77
2022/03/23 01:01:15;;;;;;;59.97;44.25;;;;;;;;;;5110114;27;20051;-77
2022/03/23 01:03:42;;;;;;;68.80;45.47;;;;;;;;;;5110155;27;20043;-77
2022/03/23 01:06:09;;;;;;;67.22;46.22;;;;;;;;;;5108464;27;20047;-77
2022/03/23 01:08:36;;;;;;;70.63;48.50;;;;;;;;;;5110561;27;20770;-77
2022/03/23 01:11:05;;;;;;;63.58;44.97;;;;;;;;;;5107197;27;20154;-77
2022/03/23 01:13:33;;;;;;;68.55;49.13;;;;;;;;;;5107589;27;20057;-77
2022/03/23 01:16:00;;;;;;;73.07;49.15;;;;;;;;;;5106617;27;20043;-77
2022/03/23 01:18:28;;;;;;;75.07;50.40;;;;;;;;;;5107404;27;20977;-77
2022/03/23 01:20:56;;;;;;;76.57;52.95;;;;;;;;;;5106900;27;20050;-77
2022/03/23 01:23:23;;;;;;;75.55;53.13;;;;;;;;;;5109802;27;20047;-77
2022/03/23 01:25:50;;;;;;;73.53;53.92;;;;;;;;;;5110407;27;20047;-77
2022/03/23 01:28:17;;;;;;;84.55;57.63;;;;;;;;;;5104616;27;20051;-77
2022/03/23 01:30:45;;;;;;;92.75;62.33;;;;;;;;;;5109287;27;20051;-77
2022/03/23 01:33:12;;;;;;;86.97;61.00;;;;;;;;;;5108065;27;20062;-77
2022/03/23 01:35:41;;;;;;;87.20;62.30;;;;;;;;;;5107986;27;20386;-77
2022/03/23 01:38:08;;;;;;;99.13;65.97;;;;;;;;;;5109744;27;20051;-77
2022/03/23 01:40:35;;;;;;;94.93;64.97;;;;;;;;;;5108425;27;20047;-77
2022/03/23 01:43:02;;;;;;;94.57;65.57;;;;;;;;;;5108295;27;20156;-77
2022/03/23 01:45:30;;;;;;;105.03;66.63;;;;;;;;;;5106810;27;20051;-77
2022/03/23 01:47:57;;;;;;;97.57;65.80;;;;;;;;;;5106520;27;20053;-77
2022/03/23 01:50:24;;;;;;;92.80;66.10;;;;;;;;;;5108659;27;20446;-77
2022/03/23 01:52:53;;;;;;;93.65;65.75;;;;;;;;;;5108828;27;20062;-77
2022/03/23 01:55:20;;;;;;;93.25;62.90;;;;;;;;;;5100670;27;20047;-77
2022/03/23 01:57:48;;;;;;;103.07;70.65;;;;;;;;;;5101108;27;20055;-77
2022/03/23 02:00:16;;;;;;;93.45;64.88;;;;;;;;;;5105627;27;20051;-77
2022/03/23 02:02:44;;;;;;;95.55;68.05;;;;;;;;;;5103204;27;20057;-77
2022/03/23 02:05:11;;;;;;;105.57;70.45;;;;;;;;;;5107910;27;20462;-77
2022/03/23 02:07:38;;;;;;;97.10;65.72;;;;;;;;;;5109352;27;20404;-77
2022/03/23 02:10:08;;;;;;;101.90;69.60;;;;;;;;;;5108250;27;20496;-77
2022/03/23 02:12:37;;;;;;;99.63;68.82;;;;;;;;;;5103542;27;20592;-77
2022/03/23 02:15:11;;;;;;;95.85;67.93;;;;;;;;;;5104341;27;20055;-77
2022/03/23 02:17:38;;;;;;;93.03;64.95;;;;;;;;;;5106886;27;20460;-77
2022/03/23 02:20:06;;;;;;;96.00;66.13;;;;;;;;;;5109007;27;20509;-77
2022/03/23 02:22:34;;;;;;;96.78;69.07;;;;;;;;;;5108046;27;20051;-77
2022/03/23 02:25:02;;;;;;;95.07;65.22;;;;;;;;;;5108019;27;20047;-77
2022/03/23 02:27:29;;;;;;;96.78;68.20;;;;;;;;;;5104029;27;20055;-77
2022/03/23 02:29:57;;;;;;;103.75;69.43;;;;;;;;;;5095397;27;20064;-77
2022/03/23 02:32:25;;;;;;;98.43;64.63;;;;;;;;;;5098669;27;20059;-77
2022/03/23 02:34:52;;;;;;;101.70;66.95;;;;;;;;;;5101669;27;20486;-77
2022/03/23 02:37:19;;;;;;;98.40;67.22;;;;;;;;;;5102857;27;20058;-77
2022/03/23 02:39:48;;;;;;;104.78;70.88;;;;;;;;;;5105474;27;20134;-77
2022/03/23 02:42:15;;;;;;;100.80;69.10;;;;;;;;;;5104252;27;20058;-77
2022/03/23 02:44:43;;;;;;;104.75;69.05;;;;;;;;;;5099624;28;20083;-77
2022/03/23 02:47:10;;;;;;;105.18;68.05;;;;;;;;;;5103000;28;20060;-77
2022/03/23 02:49:39;;;;;;;110.38;70.35;;;;;;;;;;5097967;28;20066;-77
2022/03/23 02:52:06;;;;;;;101.80;67.35;;;;;;;;;;5104989;28;20771;-77
2022/03/23 03:03:08;;;;;;;113.40;72.72;;;;;;;;;;5028287;28;20052;-77
2022/03/23 03:05:36;;;;;;;104.85;71.50;;;;;;;;;;5101016;28;20906;-77
2022/03/23 03:10:48;;;;;;;112.63;72.70;;;;;;;;;;5104132;28;20745;-77
2022/03/23 03:13:16;;;;;;;116.38;73.88;;;;;;;;;;5103097;28;20051;-77
2022/03/23 03:15:43;;;;;;;109.28;73.75;;;;;;;;;;5104311;28;20051;-77
2022/03/23 03:18:11;;;;;;;103.85;69.90;;;;;;;;;;5101500;28;20059;-77
2022/03/23 03:20:38;;;;;;;111.43;74.00;;;;;;;;;;5103999;28;20452;-77
2022/03/23 03:23:05;;;;;;;99.63;67.25;;;;;;;;;;5103931;28;20801;-77
2022/03/23 03:25:32;;;;;;;120.72;77.70;;;;;;;;;;5100761;28;20044;-77
2022/03/23 03:27:59;;;;;;;115.35;73.55;;;;;;;;;;5104131;28;20051;-77
2022/03/23 03:30:28;;;;;;;104.32;71.18;;;;;;;;;;5104046;28;20044;-77
2022/03/23 03:32:56;;;;;;;110.13;74.35;;;;;;;;;;5103728;28;20456;-77
2022/03/23 03:35:23;;;;;;;102.00;69.82;;;;;;;;;;5101009;28;20055;-77
2022/03/23 03:37:50;;;;;;;104.90;67.43;;;;;;;;;;5103904;28;20569;-77
2022/03/23 03:40:18;;;;;;;101.72;69.00;;;;;;;;;;5104093;28;20044;-77
2022/03/23 03:42:45;;;;;;;112.82;71.80;;;;;;;;;;5099154;28;20044;-77
2022/03/23 03:45:13;;;;;;;115.07;72.28;;;;;;;;;;5099977;28;20079;-77
2022/03/23 03:47:42;;;;;;;103.45;68.78;;;;;;;;;;5100880;28;20048;-77
2022/03/23 03:50:10;;;;;;;93.18;64.03;;;;;;;;;;5101391;28;20100;-77
2022/03/23 03:52:37;;;;;;;102.80;69.45;;;;;;;;;;5102029;28;20047;-77
2022/03/23 03:55:04;;;;;;;108.53;70.05;;;;;;;;;;5097781;28;20051;-77
2022/03/23 03:57:31;;;;;;;92.43;61.97;;;;;;;;;;5102394;28;20044;-77
2022/03/23 03:59:59;;;;;;;96.70;66.22;;;;;;;;;;5103693;28;20059;-77
2022/03/23 04:02:26;;;;;;;92.90;63.42;;;;;;;;;;5116255;28;20786;-77
2022/03/23 04:04:54;;;;;;;99.90;64.20;;;;;;;;;;5103048;28;20051;-77
2022/03/23 04:07:22;;;;;;;91.43;59.83;;;;;;;;;;5117776;27;20055;-77
2022/03/23 04:09:49;;;;;;;93.75;58.63;;;;;;;;;;5102710;28;20107;-77
2022/03/23 04:12:16;;;;;;;78.35;52.25;;;;;;;;;;5102068;28;20052;-77
2022/03/23 04:14:43;;;;;;;65.82;46.10;;;;;;;;;;5104057;28;20066;-77
2022/03/23 04:17:10;;;;;;;64.63;45.85;;;;;;;;;;5103119;28;20059;-77
2022/03/23 04:19:38;;;;;;;61.58;43.53;;;;;;;;;;5099221;28;20048;-77
2022/03/23 04:22:06;;;;;;;75.13;51.88;;;;;;;;;;5103710;28;20055;-77
2022/03/23 04:24:33;;;;;;;71.07;49.00;;;;;;;;;;5104603;28;20872;-77
2022/03/23 04:27:01;;;;;;;78.22;53.92;;;;;;;;;;5104815;28;21070;-77
2022/03/23 04:29:31;;;;;;;78.50;52.35;;;;;;;;;;5104326;28;20051;-77
2022/03/23 04:31:58;;;;;;;61.20;44.28;;;;;;;;;;5103719;28;20055;-77
2022/03/23 04:34:25;;;;;;;64.28;44.25;;;;;;;;;;5102754;28;20593;-77
2022/03/23 04:36:53;;;;;;;71.38;49.63;;;;;;;;;;5103983;28;20050;-77
2022/03/23 04:39:22;;;;;;;80.30;52.72;;;;;;;;;;5102669;28;20158;-77
2022/03/23 04:41:49;;;;;;;89.13;54.78;;;;;;;;;;5101045;28;20120;-77
2022/03/23 04:44:16;;;;;;;81.57;53.67;;;;;;;;;;5095596;28;20067;-77
2022/03/23 04:46:43;;;;;;;64.13;44.35;;;;;;;;;;5083272;28;20064;-77
2022/03/23 04:49:11;;;;;;;82.60;52.78;;;;;;;;;;5085886;28;20044;-77
2022/03/23 04:51:38;;;;;;;76.38;51.75;;;;;;;;;;5083662;28;20055;-77
2022/03/23 04:54:06;;;;;;;78.53;51.03;;;;;;;;;;5086846;28;20059;-77
2022/03/23 04:56:34;;;;;;;78.97;51.97;;;;;;;;;;5085489;28;20065;-77
2022/03/23 04:59:02;;;;;;;71.75;50.75;;;;;;;;;;5083279;28;20048;-77
2022/03/23 05:01:29;;;;;;;78.15;50.08;;;;;;;;;;5085579;28;20056;-77
2022/03/23 05:03:57;;;;;;;81.72;54.67;;;;;;;;;;5077776;28;20545;-77
2022/03/23 05:06:24;;;;;;;67.85;47.35;;;;;;;;;;5084151;28;20179;-77
2022/03/23 05:08:51;;;;;;;76.03;51.78;;;;;;;;;;5086001;28;20490;-77
2022/03/23 05:11:18;;;;;;;73.97;49.17;;;;;;;;;;5082304;28;20044;-77
2022/03/23 05:13:47;;;;;;;62.05;45.03;;;;;;;;;;5080571;28;20438;-77
2022/03/23 05:16:14;;;;;;;60.63;42.08;;;;;;;;;;5082624;28;20495;-77
2022/03/23 05:18:42;;;;;;;55.10;38.17;;;;;;;;;;5085884;28;20056;-77
2022/03/23 05:21:09;;;;;;;58.95;39.60;;;;;;;;;;5083640;28;20126;-77
2022/03/23 05:23:37;;;;;;;54.00;38.47;;;;;;;;;;5076333;28;20118;-77
2022/03/23 05:26:04;;;;;;;65.78;44.03;;;;;;;;;;5083870;28;20048;-77
2022/03/23 05:28:31;;;;;;;67.95;45.75;;;;;;;;;;5081701;28;20051;-77
2022/03/23 05:31:00;;;;;;;78.75;52.45;;;;;;;;;;5081410;28;20051;-77
2022/03/23 05:33:27;;;;;;;71.20;48.78;;;;;;;;;;5101702;28;20958;-77
2022/03/23 05:35:54;;;;;;;84.75;54.25;;;;;;;;;;5084341;28;20051;-77
2022/03/23 05:38:22;;;;;;;83.18;55.10;;;;;;;;;;5084631;28;20052;-77
2022/03/23 05:40:49;;;;;;;102.78;51.60;;;;;;;;;;5085279;28;20512;-77
2022/03/23 05:43:18;;;;;;;74.13;48.05;;;;;;;;;;5082855;28;20048;-77
2022/03/23 05:45:45;;;;;;;129.75;47.60;;;;;;;;;;5098685;28;20398;-77
2022/03/23 05:48:14;;;;;;;261.33;42.00;;;;;;;;;;5103346;28;20607;-77
2022/03/23 05:50:41;;;;;;;53.13;39.15;;;;;;;;;;5105361;28;20043;-77
2022/03/23 05:53:08;;;;;;;51.90;38.83;;;;;;;;;;5105351;28;20048;-77
2022/03/23 05:55:36;;;;;;;57.67;40.22;;;;;;;;;;5105736;28;20143;-77
2022/03/23 05:58:04;;;;;;;67.25;44.13;;;;;;;;;;5102386;28;20103;-77
2022/03/23 06:00:32;;;;;;;57.40;41.10;;;;;;;;;;5102528;28;20116;-77
2022/03/23 06:03:04;;;;;;;55.53;40.13;;;;;;;;;;5105383;28;20410;-77
2022/03/23 06:05:33;;;;;;;57.55;40.65;;;;;;;;;;5102670;28;20043;-77
2022/03/23 06:08:00;;;;;;;59.08;41.80;;;;;;;;;;5101927;28;20483;-77
2022/03/23 06:10:27;;;;;;;58.97;40.67;;;;;;;;;;5105944;28;20047;-77
2022/03/23 06:12:55;;;;;;;52.97;39.03;;;;;;;;;;5105073;28;21215;-77
2022/03/23 06:15:22;;;;;;;41.47;33.88;;;;;;;;;;5105733;28;20055;-77
2022/03/23 06:17:49;;;;;;;60.70;43.13;;;;;;;;;;5102319;28;20040;-77
2022/03/23 06:20:16;;;;;;;56.50;41.08;;;;;;;;;;5099452;28;20052;-76
2022/03/23 06:22:45;;;;;;;50.65;39.42;;;;;;;;;;5099436;28;20521;-75
2022/03/23 06:25:12;;;;;;;42.40;34.25;;;;;;;;;;5103731;28;20104;-76
2022/03/23 06:27:40;;;;;;;49.33;37.92;;;;;;;;;;5101516;28;20763;-76
2022/03/23 06:30:08;;;;;;;54.30;42.42;;;;;;;;;;5100848;28;20040;-76
2022/03/23 06:32:35;;;;;;;54.65;40.58;;;;;;;;;;5103858;28;20404;-75
2022/03/23 06:35:02;;;;;;;47.10;37.38;;;;;;;;;;5098701;28;20062;-77
2022/03/23 06:37:30;;;;;;;58.55;43.42;;;;;;;;;;5101758;28;20047;-77
2022/03/23 06:39:59;;;;;;;49.63;36.20;;;;;;;;;;5111985;27;20399;-76
2022/03/23 06:42:27;;;;;;;46.88;36.47;;;;;;;;;;5095577;28;20063;-77
2022/03/23 06:44:54;;;;;;;51.05;39.63;;;;;;;;;;5100054;28;20083;-77
2022/03/23 06:47:22;;;;;;;48.47;38.20;;;;;;;;;;5098465;28;20268;-77
2022/03/23 06:49:49;;;;;;;42.72;34.33;;;;;;;;;;5101696;28;20379;-77
2022/03/23 06:52:17;;;;;;;45.30;35.83;;;;;;;;;;5099599;28;20532;-77
2022/03/23 06:54:44;;;;;;;54.92;41.47;;;;;;;;;;5100340;28;20059;-77
2022/03/23 06:57:13;;;;;;;53.42;39.47;;;;;;;;;;5097577;28;20063;-77
2022/03/23 06:59:40;;;;;;;58.35;42.60;;;;;;;;;;5099428;27;20063;-77
2022/03/23 07:02:08;;;;;;;69.63;47.22;;;;;;;;;;5096752;28;20109;-77
2022/03/23 07:04:35;;;;;;;61.65;45.22;;;;;;;;;;5104634;28;20059;-77
2022/03/23 07:07:02;;;;;;;59.85;45.10;;;;;;;;;;5102504;28;20062;-77
2022/03/23 07:09:31;;;;;;;62.15;44.65;;;;;;;;;;5104276;28;20428;-77
2022/03/23 07:11:59;;;;;;;60.75;44.50;;;;;;;;;;5099050;28;20044;-77
2022/03/23 07:14:28;;;;;;;57.10;44.08;;;;;;;;;;5105279;28;20058;-77
2022/03/23 07:16:55;;;;;;;55.08;41.17;;;;;;;;;;5103090;28;20054;-77
2022/03/23 07:19:23;;;;;;;62.53;46.20;;;;;;;;;;5100429;28;20544;-77
2022/03/23 07:21:50;;;;;;;58.92;43.88;;;;;;;;;;5104817;28;20096;-77
2022/03/23 07:24:18;;;;;;;61.17;46.50;;;;;;;;;;5101980;28;20070;-77
2022/03/23 07:26:45;;;;;;;76.72;53.17;;;;;;;;;;5103572;28;20059;-77
2022/03/23 07:29:13;;;;;;;75.22;53.08;;;;;;;;;;5102704;28;20051;-77
2022/03/23 07:31:41;;;;;;;81.82;55.35;;;;;;;;;;5096332;28;20035;-77
2022/03/23 07:34:09;;;;;;;83.80;56.08;;;;;;;;;;5097806;28;20043;-77
2022/03/23 07:36:37;;;;;;;84.63;58.85;;;;;;;;;;5099064;28;20391;-77
2022/03/23 07:39:04;;;;;;;93.47;62.60;;;;;;;;;;5093968;28;20044;-77
2022/03/23 07:41:32;;;;;;;91.57;61.88;;;;;;;;;;5096527;28;20102;-77
2022/03/23 07:43:59;;;;;;;90.85;62.47;;;;;;;;;;5101499;28;20518;-77
2022/03/23 07:46:26;;;;;;;96.25;63.75;;;;;;;;;;5112356;27;20109;-77
2022/03/23 07:48:55;;;;;;;92.00;61.20;;;;;;;;;;5100795;28;20570;-77
2022/03/23 07:51:22;;;;;;;91.90;64.57;;;;;;;;;;5101582;28;20047;-77
2022/03/23 07:53:49;;;;;;;86.72;62.88;;;;;;;;;;5095836;28;20066;-77
2022/03/23 07:56:16;;;;;;;89.97;60.00;;;;;;;;;;5096836;28;20055;-77
2022/03/23 07:58:44;;;;;;;88.10;59.10;;;;;;;;;;5102127;28;20865;-77
2022/03/23 08:01:11;;;;;;;83.35;57.67;;;;;;;;;;5102907;28;20058;-77
2022/03/23 08:03:39;;;;;;;86.93;60.58;;;;;;;;;;5098089;28;20155;-77
2022/03/23 08:06:07;;;;;;;81.55;58.10;;;;;;;;;;5100911;28;20810;-77
2022/03/23 08:08:34;;;;;;;80.45;55.45;;;;;;;;;;5104310;28;20108;-77
2022/03/23 08:11:02;;;;;;;86.63;59.65;;;;;;;;;;5107848;28;20072;-77
2022/03/23 08:13:29;;;;;;;79.68;54.45;;;;;;;;;;5106677;28;20047;-77
2022/03/23 08:15:56;;;;;;;74.93;55.17;;;;;;;;;;5105295;28;20501;-77
2022/03/23 08:18:24;;;;;;;80.57;54.65;;;;;;;;;;5102328;28;20083;-77
2022/03/23 08:20:51;;;;;;;78.32;54.08;;;;;;;;;;5108910;27;20612;-77
2022/03/23 08:23:19;;;;;;;79.80;56.38;;;;;;;;;;5109080;27;20051;-77
2022/03/23 08:25:47;;;;;;;79.70;54.50;;;;;;;;;;5110057;27;20057;-77
2022/03/23 08:28:15;;;;;;;79.10;52.97;;;;;;;;;;5111553;27;20051;-77
2022/03/23 08:30:44;;;;;;;78.40;51.42;;;;;;;;;;5105674;27;20070;-77
2022/03/23 08:33:11;;;;;;;75.15;51.15;;;;;;;;;;5105279;27;20053;-77
2022/03/23 08:35:39;;;;;;;64.18;47.65;;;;;;;;;;5108523;27;20051;-77
2022/03/23 08:38:07;;;;;;;73.68;50.90;;;;;;;;;;5108065;27;20051;-77
2022/03/23 08:40:35;;;;;;;72.75;49.67;;;;;;;;;;5107059;27;20047;-77
2022/03/23 08:43:03;;;;;;;68.15;46.25;;;;;;;;;;5109952;27;20048;-77
2022/03/23 08:45:31;;;;;;;64.20;46.42;;;;;;;;;;5109007;27;20059;-77
2022/03/23 08:47:59;;;;;;;69.40;45.45;;;;;;;;;;5108058;27;20050;-77
2022/03/23 08:50:27;;;;;;;62.67;44.30;;;;;;;;;;5103839;27;20039;-77
2022/03/23 08:52:54;;;;;;;63.38;45.20;;;;;;;;;;5109418;27;20065;-77
2022/03/23 08:55:23;;;;;;;63.70;44.00;;;;;;;;;;5109187;27;20051;-77
2022/03/23 08:57:51;;;;;;;62.35;42.28;;;;;;;;;;5102970;27;20062;-78
2022/03/23 09:00:19;;;;;;;66.70;43.20;;;;;;;;;;5106308;27;20055;-78
2022/03/23 09:02:46;;;;;;;57.72;42.45;;;;;;;;;;5104015;27;20050;-78
2022/03/23 09:05:14;;;;;;;63.55;41.88;;;;;;;;;;5106102;27;20485;-78
2022/03/23 09:07:41;;;;;;;57.47;40.47;;;;;;;;;;5108846;27;20043;-78
2022/03/23 09:10:09;;;;;;;55.97;40.15;;;;;;;;;;5106649;27;20047;-78
2022/03/23 09:12:37;;;;;;;57.80;37.97;;;;;;;;;;5109142;27;20059;-78
2022/03/23 09:15:06;;;;;;;58.53;38.25;;;;;;;;;;5107596;27;20138;-78
2022/03/23 09:17:33;;;;;;;54.63;37.38;;;;;;;;;;5109050;27;20374;-78
2022/03/23 09:20:01;;;;;;;50.03;37.28;;;;;;;;;;5107330;27;20104;-78
2022/03/23 09:22:28;;;;;;;57.67;37.83;;;;;;;;;;5108144;27;20051;-78
2022/03/23 09:24:56;;;;;;;55.92;39.67;;;;;;;;;;5107343;27;20051;-78
2022/03/23 09:27:23;;;;;;;52.65;35.95;;;;;;;;;;5109013;27;20043;-78
2022/03/23 09:29:51;;;;;;;51.53;36.85;;;;;;;;;;5099692;27;20202;-78
2022/03/23 09:32:19;;;;;;;52.97;35.90;;;;;;;;;;5097978;27;20043;-78
2022/03/23 09:34:49;;;;;;;52.38;35.88;;;;;;;;;;5100819;27;20130;-78
2022/03/23 09:40:01;;;;;;;51.10;33.40;;;;;;;;;;5104325;27;20047;-78
2022/03/23 09:42:29;;;;;;;47.05;33.17;;;;;;;;;;5107371;27;20043;-78
2022/03/23 09:44:56;;;;;;;48.47;33.20;;;;;;;;;;5106886;27;20114;-78
2022/03/23 09:47:25;;;;;;;45.13;32.28;;;;;;;;;;5108663;27;20047;-78
2022/03/23 09:49:52;;;;;;;44.65;33.45;;;;;;;;;;5107641;27;20451;-78
2022/03/23 09:52:20;;;;;;;42.72;32.08;;;;;;;;;;5105881;27;20059;-78
2022/03/23 09:54:47;;;;;;;48.45;31.73;;;;;;;;;;5106454;27;20047;-78
2022/03/23 09:57:15;;;;;;;51.13;30.08;;;;;;;;;;5105101;27;20051;-78
2022/03/23 09:59:42;;;;;;;46.72;30.70;;;;;;;;;;5107335;27;20063;-78
2022/03/23 10:02:27;;;;;;;41.28;30.38;;;;;;;;;;5108092;27;20044;-78
2022/03/23 10:05:24;;;;;;;44.15;30.92;;;;;;;;;;5105027;27;20054;-77
2022/03/23 10:07:54;;;;;;;45.05;30.70;;;;;;;;;;5107234;27;20062;-77
2022/03/23 10:10:55;;;;;;;41.60;28.60;;;;;;;;;;5105517;27;20051;-77
2022/03/23 10:13:50;;;;;;;48.58;31.00;;;;;;;;;;5106460;27;20048;-77
2022/03/23 10:16:47;;;;;;;46.17;30.48;;;;;;;;;;5106304;27;20474;-77
2022/03/23 10:19:14;;;;;;;39.17;27.75;;;;;;;;;;5104150;27;20492;-77
2022/03/23 10:21:42;;;;;;;43.20;27.80;;;;;;;;;;5095262;27;20055;-77
2022/03/23 10:24:30;;;;;;;41.22;28.35;;;;;;;;;;5099855;27;20054;-78
2022/03/23 10:26:59;;;;;;;37.78;27.00;;;;;;;;;;5099546;27;20135;-78
2022/03/23 10:29:27;;;;;;;46.50;27.45;;;;;;;;;;5117182;27;20048;-77
2022/03/23 10:32:02;;;;;;;42.08;27.60;;;;;;;;;;5099513;27;20074;-78
2022/03/23 10:34:38;;;;;;;41.15;26.17;;;;;;;;;;5105866;27;20100;-77
2022/03/23 10:37:05;;;;;;;40.55;27.05;;;;;;;;;;5108554;27;20047;-78
2022/03/23 10:39:33;;;;;;;39.75;26.58;;;;;;;;;;5113277;27;20086;-78
2022/03/23 10:42:06;;;;;;;41.88;27.17;;;;;;;;;;5111187;27;20054;-78
2022/03/23 10:44:33;;;;;;;42.65;26.15;;;;;;;;;;5105632;27;20066;-78
2022/03/23 10:47:01;;;;;;;43.38;25.73;;;;;;;;;;5112033;27;20050;-78
2022/03/23 10:49:32;;;;;;;42.63;25.65;;;;;;;;;;5111083;27;20137;-78
2022/03/23 10:52:08;;;;;;;37.35;25.25;;;;;;;;;;5105981;27;20086;-78
2022/03/23 10:54:35;;;;;;;36.92;22.58;;;;;;;;;;5108017;27;20051;-78
2022/03/23 10:57:04;;;;;;;35.42;22.23;;;;;;;;;;5106710;27;20055;-78
2022/03/23 10:59:32;;;;;;;38.33;23.15;;;;;;;;;;5103284;27;20088;-78
2022/03/23 11:02:01;;;;;;;37.83;24.55;;;;;;;;;;5107948;27;20126;-78
2022/03/23 11:04:30;;;;;;;38.97;22.67;;;;;;;;;;5103690;27;20441;-78
2022/03/23 11:06:58;;;;;;;31.75;18.35;;;;;;;;;;5107975;27;21123;-78
2022/03/23 11:18:05;;;;;;;33.83;17.35;;;;;;;;;;5109067;27;20050;-78
2022/03/23 11:20:40;;;;;;;30.15;16.92;;;;;;;;;;5106988;27;20051;-78
2022/03/23 11:23:16;;;;;;;28.30;15.55;;;;;;;;;;5108477;27;20043;-78
2022/03/23 11:25:45;;;;;;;31.63;18.65;;;;;;;;;;5101622;27;20058;-78
2022/03/23 11:28:15;;;;;;;42.08;19.80;;;;;;;;;;5104440;27;20059;-78
2022/03/23 11:30:42;;;;;;;43.03;19.30;;;;;;;;;;5108001;27;20100;-78
2022/03/23 11:33:10;;;;;;;26.60;17.10;;;;;;;;;;5100795;27;20042;-78
2022/03/23 11:35:40;;;;;;;32.67;16.40;;;;;;;;;;5100550;27;20054;-78
2022/03/23 11:38:11;;;;;;;29.48;15.63;;;;;;;;;;5106351;27;20058;-78
2022/03/23 11:40:39;;;;;;;25.25;14.82;;;;;;;;;;5107204;27;20067;-78
2022/03/23 11:43:06;;;;;;;26.52;14.60;;;;;;;;;;5106798;27;20050;-78
2022/03/23 11:45:35;;;;;;;29.48;16.10;;;;;;;;;;5107327;28;20111;-78
2022/03/23 11:48:09;;;;;;;28.88;15.50;;;;;;;;;;5104271;27;20603;-78
2022/03/23 11:50:46;;;;;;;28.65;17.63;;;;;;;;;;5100090;28;20043;-78
2022/03/23 11:53:19;;;;;;;33.53;16.77;;;;;;;;;;5105529;27;20394;-78
2022/03/23 11:55:46;;;;;;;;;;;;;;;;;;5107141;28;20497;-78
2022/03/23 11:58:18;;;;;;;28.77;17.27;;;;;;;;;;5107223;27;20309;-78
2022/03/23 12:00:50;;;;;;;29.40;17.85;;;;;;;;;;5106997;27;20051;-78
2022/03/23 12:03:32;;;;;;;26.70;16.80;;;;;;;;;;5104370;28;20062;-78
2022/03/23 12:06:09;;;;;;;30.63;17.85;;;;;;;;;;5105329;28;20050;-78
2022/03/23 12:08:49;;;;;;;28.23;18.23;;;;;;;;;;5107663;27;20051;-78
2022/03/23 12:11:37;;;;;;;34.72;19.05;;;;;;;;;;5104700;28;20136;-78
2022/03/23 12:14:06;;;;;;;25.67;17.98;;;;;;;;;;5108452;27;20478;-79
2022/03/23 12:16:52;;;;;;;33.78;19.20;;;;;;;;;;5109984;28;20043;-79
2022/03/23 12:19:24;;;;;;;28.38;19.45;;;;;;;;;;5107069;27;20123;-79
2022/03/23 12:21:55;;;;;;;32.40;19.92;;;;;;;;;;5107045;28;20126;-78
2022/03/23 12:24:28;;;;;;;27.98;19.83;;;;;;;;;;5108619;27;20122;-78
2022/03/23 12:26:56;;;;;;;29.80;20.95;;;;;;;;;;5106811;28;20062;-78
2022/03/23 12:29:25;;;;;;;31.63;20.38;;;;;;;;;;5109074;27;20052;-78
2022/03/23 12:32:05;;;;;;;30.50;20.98;;;;;;;;;;5104970;28;20043;-79
2022/03/23 12:34:36;;;;;;;31.42;19.50;;;;;;;;;;5103567;28;20051;-79
2022/03/23 12:37:09;;;;;;;35.80;19.55;;;;;;;;;;5103531;28;20055;-79
2022/03/23 12:39:38;;;;;;;28.23;20.27;;;;;;;;;;5102930;28;20058;-79
2022/03/23 12:42:16;;;;;;;30.20;21.55;;;;;;;;;;5107098;28;20885;-79
2022/03/23 12:44:44;;;;;;;30.58;20.55;;;;;;;;;;5105436;28;20120;-79
2022/03/23 12:47:12;;;;;;;32.53;21.67;;;;;;;;;;5104672;28;21077;-79
2022/03/23 12:58:05;;;;;;;29.35;20.05;;;;;;;;;;5103549;28;20044;-78
2022/03/23 13:00:34;;;;;;;25.55;18.77;;;;;;;;;;5104130;28;20058;-78
2022/03/23 13:03:30;;;;;;;30.33;20.92;;;;;;;;;;5102448;28;20047;-78
2022/03/23 13:06:09;;;;;;;28.75;20.85;;;;;;;;;;5102464;27;20043;-78
2022/03/23 13:08:47;;;;;;;28.63;19.58;;;;;;;;;;5107125;27;20063;-78
2022/03/23 13:11:14;;;;;;;27.30;19.25;;;;;;;;;;5103590;27;20095;-78
2022/03/23 13:13:43;;;;;;;28.70;19.90;;;;;;;;;;5108872;27;20043;-78
2022/03/23 13:16:10;;;;;;;38.13;19.95;;;;;;;;;;5096429;27;20079;-78
2022/03/23 13:18:38;;;;;;;29.45;19.02;;;;;;;;;;5109715;27;20047;-78
2022/03/23 13:21:11;;;;;;;25.13;18.60;;;;;;;;;;5109364;27;20059;-78
2022/03/23 13:23:41;;;;;;;29.67;18.27;;;;;;;;;;5109321;27;20051;-79
2022/03/23 13:26:09;;;;;;;26.58;19.90;;;;;;;;;;5109691;27;20047;-79
2022/03/23 13:28:37;;;;;;;27.33;19.30;;;;;;;;;;5107299;27;20456;-78
2022/03/23 13:31:07;;;;;;;25.50;18.60;;;;;;;;;;5104177;27;20054;-78
2022/03/23 13:33:38;;;;;;;23.17;18.20;;;;;;;;;;5098525;27;20100;-78
2022/03/23 13:36:06;;;;;;;29.17;19.02;;;;;;;;;;5107759;27;20051;-78
2022/03/23 13:38:40;;;;;;;26.40;19.35;;;;;;;;;;5108252;27;20137;-78
2022/03/23 13:43:53;;;;;;;27.50;19.85;;;;;;;;;;5107353;27;20042;-78
2022/03/23 13:46:21;;;;;;;24.77;18.55;;;;;;;;;;5103006;27;20066;-78
2022/03/23 13:48:58;;;;;;;24.13;18.98;;;;;;;;;;5108612;27;20051;-78
2022/03/23 13:51:26;;;;;;;27.75;19.90;;;;;;;;;;5104154;27;20180;-78
2022/03/23 13:53:57;;;;;;;27.02;20.15;;;;;;;;;;5104852;27;20047;-78
2022/03/23 13:56:25;;;;;;;26.88;20.25;;;;;;;;;;5101043;27;20132;-78
2022/03/23 13:58:53;;;;;;;24.13;19.55;;;;;;;;;;5109288;27;20827;-78
2022/03/23 14:01:20;;;;;;;25.10;18.88;;;;;;;;;;5103534;27;20096;-78
2022/03/23 14:03:49;;;;;;;27.45;19.35;;;;;;;;;;5101962;27;20057;-78
2022/03/23 14:06:18;;;;;;;25.98;19.13;;;;;;;;;;5108168;27;20059;-78
2022/03/23 14:08:52;;;;;;;25.58;19.58;;;;;;;;;;5101841;27;20059;-78
2022/03/23 14:11:47;;;;;;;20.45;16.85;;;;;;;;;;5104561;27;20101;-78
2022/03/23 14:14:09;;;;;;;25.58;18.95;;;;;;;;;;5109743;27;20039;-79
2022/03/23 14:16:36;;;;;;;24.25;17.20;;;;;;;;;;5104114;27;20382;-79
2022/03/23 14:19:05;;;;;;;28.50;18.20;;;;;;;;;;5107869;27;20058;-79
2022/03/23 14:21:32;;;;;;;26.23;19.10;;;;;;;;;;5108098;27;20043;-79
2022/03/23 14:24:00;;;;;;;25.67;19.60;;;;;;;;;;5107909;27;20061;-78
2022/03/23 14:26:35;;;;;;;28.85;20.73;;;;;;;;;;5107242;27;20055;-78
2022/03/23 14:29:03;;;;;;;27.20;23.30;;;;;;;;;;5107765;27;20121;-78
2022/03/23 14:31:30;;;;;;;27.67;22.35;;;;;;;;;;5105646;27;20043;-78
2022/03/23 14:34:05;;;;;;;27.50;21.60;;;;;;;;;;5106230;27;20407;-78
2022/03/23 14:36:32;;;;;;;28.35;22.15;;;;;;;;;;5103716;27;20047;-78
2022/03/23 14:39:00;;;;;;;29.58;22.58;;;;;;;;;;5103346;27;20059;-78
2022/03/23 14:41:27;;;;;;;26.88;22.52;;;;;;;;;;5108137;27;20054;-78
2022/03/23 14:43:57;;;;;;;28.48;21.40;;;;;;;;;;5106902;27;20987;-78
2022/03/23 14:46:25;;;;;;;27.33;22.17;;;;;;;;;;5107665;27;20452;-78
2022/03/23 14:49:03;;;;;;;24.13;20.52;;;;;;;;;;5106599;27;20112;-78
2022/03/23 14:51:31;;;;;;;28.83;20.73;;;;;;;;;;5106629;27;20235;-78
2022/03/23 14:53:58;;;;;;;24.25;19.73;;;;;;;;;;5104320;27;20489;-78
2022/03/23 14:56:25;;;;;;;22.85;19.42;;;;;;;;;;5105801;27;20124;-78
2022/03/23 14:58:58;;;;;;;23.92;20.45;;;;;;;;;;5106927;27;20047;-78
2022/03/23 15:01:25;;;;;;;30.95;19.88;;;;;;;;;;5106573;27;20054;-78